sensor_id;sensor_type;location;lat;lon;timestamp;P1;durP1;ratioP1;P2;durP2;ratioP2
76262;SDS011;65080;50.908;6.916;2023-07-29T00:00:28;3.10;;;1.60;;
76262;SDS011;65080;50.908;6.916;2023-07-29T00:02:57;1.93;;;1.27;;
76262;SDS011;65080;50.908;6.916;2023-07-29T00:05:26;1.87;;;1.20;;
76262;SDS011;65080;50.908;6.916;2023-07-29T00:07:54;2.00;;;1.20;;
76262;SDS011;65080;50.908;6.916;2023-07-29T00:10:22;4.73;;;1.40;;
76262;SDS011;65080;50.908;6.916;2023-07-29T00:12:50;6.33;;;1.83;;
76262;SDS011;65080;50.908;6.916;2023-07-29T00:15:19;1.53;;;1.13;;
76262;SDS011;65080;50.908;6.916;2023-07-29T00:17:47;1.77;;;1.50;;
76262;SDS011;65080;50.908;6.916;2023-07-29T00:20:17;6.40;;;1.70;;
76262;SDS011;65080;50.908;6.916;2023-07-29T00:22:45;2.03;;;1.67;;
76262;SDS011;65080;50.908;6.916;2023-07-29T00:25:16;3.70;;;1.63;;
76262;SDS011;65080;50.908;6.916;2023-07-29T00:27:44;4.37;;;1.63;;
76262;SDS011;65080;50.908;6.916;2023-07-29T00:30:12;4.70;;;2.40;;
76262;SDS011;65080;50.908;6.916;2023-07-29T00:32:40;3.00;;;1.63;;
76262;SDS011;65080;50.908;6.916;2023-07-29T00:35:09;1.40;;;1.30;;
76262;SDS011;65080;50.908;6.916;2023-07-29T00:37:38;2.43;;;1.50;;
76262;SDS011;65080;50.908;6.916;2023-07-29T00:40:09;4.73;;;1.63;;
76262;SDS011;65080;50.908;6.916;2023-07-29T00:42:43;3.50;;;2.00;;
76262;SDS011;65080;50.908;6.916;2023-07-29T00:45:11;2.93;;;1.90;;
76262;SDS011;65080;50.908;6.916;2023-07-29T00:47:40;1.90;;;1.30;;
76262;SDS011;65080;50.908;6.916;2023-07-29T00:50:09;1.67;;;1.27;;
76262;SDS011;65080;50.908;6.916;2023-07-29T00:52:41;2.07;;;1.30;;
76262;SDS011;65080;50.908;6.916;2023-07-29T00:55:09;4.23;;;1.47;;
76262;SDS011;65080;50.908;6.916;2023-07-29T00:57:38;1.50;;;1.30;;
76262;SDS011;65080;50.908;6.916;2023-07-29T01:00:07;3.77;;;1.93;;
76262;SDS011;65080;50.908;6.916;2023-07-29T01:02:37;2.23;;;2.03;;
76262;SDS011;65080;50.908;6.916;2023-07-29T01:05:06;7.20;;;2.60;;
76262;SDS011;65080;50.908;6.916;2023-07-29T01:07:36;2.87;;;2.47;;
76262;SDS011;65080;50.908;6.916;2023-07-29T01:10:15;2.00;;;1.53;;
76262;SDS011;65080;50.908;6.916;2023-07-29T01:12:49;8.70;;;2.00;;
76262;SDS011;65080;50.908;6.916;2023-07-29T01:15:23;4.20;;;1.83;;
76262;SDS011;65080;50.908;6.916;2023-07-29T01:17:55;3.77;;;1.60;;
76262;SDS011;65080;50.908;6.916;2023-07-29T01:20:31;2.70;;;1.80;;
76262;SDS011;65080;50.908;6.916;2023-07-29T01:23:01;2.07;;;1.80;;
76262;SDS011;65080;50.908;6.916;2023-07-29T01:25:31;2.67;;;1.67;;
76262;SDS011;65080;50.908;6.916;2023-07-29T01:27:59;3.67;;;1.90;;
76262;SDS011;65080;50.908;6.916;2023-07-29T01:30:28;2.67;;;2.03;;
76262;SDS011;65080;50.908;6.916;2023-07-29T01:33:02;3.40;;;1.97;;
76262;SDS011;65080;50.908;6.916;2023-07-29T01:35:39;4.23;;;2.60;;
76262;SDS011;65080;50.908;6.916;2023-07-29T01:38:12;3.20;;;2.27;;
76262;SDS011;65080;50.908;6.916;2023-07-29T01:40:45;3.43;;;2.60;;
76262;SDS011;65080;50.908;6.916;2023-07-29T01:43:16;2.40;;;1.87;;
76262;SDS011;65080;50.908;6.916;2023-07-29T01:45:45;3.97;;;2.60;;
76262;SDS011;65080;50.908;6.916;2023-07-29T01:48:13;4.60;;;2.80;;
76262;SDS011;65080;50.908;6.916;2023-07-29T01:50:41;4.87;;;2.50;;
76262;SDS011;65080;50.908;6.916;2023-07-29T01:53:10;4.17;;;3.77;;
76262;SDS011;65080;50.908;6.916;2023-07-29T01:55:38;5.70;;;2.97;;
76262;SDS011;65080;50.908;6.916;2023-07-29T01:58:08;21.77;;;3.67;;
76262;SDS011;65080;50.908;6.916;2023-07-29T02:00:36;6.73;;;2.83;;
76262;SDS011;65080;50.908;6.916;2023-07-29T02:03:04;12.13;;;3.10;;
76262;SDS011;65080;50.908;6.916;2023-07-29T02:05:32;6.37;;;3.30;;
76262;SDS011;65080;50.908;6.916;2023-07-29T02:08:01;3.90;;;1.73;;
76262;SDS011;65080;50.908;6.916;2023-07-29T02:10:29;2.63;;;1.20;;
76262;SDS011;65080;50.908;6.916;2023-07-29T02:12:57;3.30;;;1.50;;
76262;SDS011;65080;50.908;6.916;2023-07-29T02:15:27;2.97;;;1.57;;
76262;SDS011;65080;50.908;6.916;2023-07-29T02:17:55;3.23;;;1.30;;
76262;SDS011;65080;50.908;6.916;2023-07-29T02:20:25;1.83;;;1.20;;
76262;SDS011;65080;50.908;6.916;2023-07-29T02:22:54;2.97;;;1.17;;
76262;SDS011;65080;50.908;6.916;2023-07-29T02:25:22;2.77;;;1.73;;
76262;SDS011;65080;50.908;6.916;2023-07-29T02:27:50;4.10;;;1.43;;
76262;SDS011;65080;50.908;6.916;2023-07-29T02:30:18;7.07;;;1.57;;
76262;SDS011;65080;50.908;6.916;2023-07-29T02:32:49;3.33;;;1.40;;
76262;SDS011;65080;50.908;6.916;2023-07-29T02:35:17;3.97;;;1.70;;
76262;SDS011;65080;50.908;6.916;2023-07-29T02:37:45;5.73;;;1.80;;
76262;SDS011;65080;50.908;6.916;2023-07-29T02:40:14;8.70;;;2.33;;
76262;SDS011;65080;50.908;6.916;2023-07-29T02:42:42;4.70;;;1.90;;
76262;SDS011;65080;50.908;6.916;2023-07-29T02:45:11;3.37;;;1.30;;
76262;SDS011;65080;50.908;6.916;2023-07-29T02:47:39;3.70;;;1.70;;
76262;SDS011;65080;50.908;6.916;2023-07-29T02:50:09;4.87;;;1.73;;
76262;SDS011;65080;50.908;6.916;2023-07-29T02:52:38;3.90;;;2.10;;
76262;SDS011;65080;50.908;6.916;2023-07-29T02:55:06;6.47;;;2.47;;
76262;SDS011;65080;50.908;6.916;2023-07-29T02:57:35;2.17;;;1.50;;
76262;SDS011;65080;50.908;6.916;2023-07-29T03:00:03;2.90;;;1.50;;
76262;SDS011;65080;50.908;6.916;2023-07-29T03:02:33;4.07;;;1.63;;
76262;SDS011;65080;50.908;6.916;2023-07-29T03:05:02;2.20;;;1.13;;
76262;SDS011;65080;50.908;6.916;2023-07-29T03:07:32;3.27;;;1.63;;
76262;SDS011;65080;50.908;6.916;2023-07-29T03:10:00;3.97;;;1.97;;
76262;SDS011;65080;50.908;6.916;2023-07-29T03:12:29;2.33;;;1.37;;
76262;SDS011;65080;50.908;6.916;2023-07-29T03:14:57;5.33;;;1.90;;
76262;SDS011;65080;50.908;6.916;2023-07-29T03:17:27;5.07;;;1.63;;
76262;SDS011;65080;50.908;6.916;2023-07-29T03:19:55;5.37;;;1.60;;
76262;SDS011;65080;50.908;6.916;2023-07-29T03:22:23;4.10;;;2.03;;
76262;SDS011;65080;50.908;6.916;2023-07-29T03:24:53;2.90;;;1.10;;
76262;SDS011;65080;50.908;6.916;2023-07-29T03:27:21;2.20;;;1.40;;
76262;SDS011;65080;50.908;6.916;2023-07-29T03:29:49;1.70;;;1.27;;
76262;SDS011;65080;50.908;6.916;2023-07-29T03:32:18;3.50;;;1.40;;
76262;SDS011;65080;50.908;6.916;2023-07-29T03:34:46;6.90;;;1.23;;
76262;SDS011;65080;50.908;6.916;2023-07-29T03:37:14;3.20;;;1.30;;
76262;SDS011;65080;50.908;6.916;2023-07-29T03:39:43;3.50;;;1.40;;
76262;SDS011;65080;50.908;6.916;2023-07-29T03:42:12;2.60;;;2.00;;
76262;SDS011;65080;50.908;6.916;2023-07-29T03:44:40;2.40;;;1.30;;
76262;SDS011;65080;50.908;6.916;2023-07-29T03:47:09;2.87;;;1.60;;
76262;SDS011;65080;50.908;6.916;2023-07-29T03:49:37;4.43;;;1.40;;
76262;SDS011;65080;50.908;6.916;2023-07-29T03:52:05;4.60;;;1.77;;
76262;SDS011;65080;50.908;6.916;2023-07-29T03:54:34;3.17;;;1.50;;
76262;SDS011;65080;50.908;6.916;2023-07-29T03:57:02;3.93;;;1.67;;
76262;SDS011;65080;50.908;6.916;2023-07-29T03:59:32;2.73;;;1.60;;
76262;SDS011;65080;50.908;6.916;2023-07-29T04:02:00;2.57;;;1.53;;
76262;SDS011;65080;50.908;6.916;2023-07-29T04:04:29;2.37;;;2.00;;
76262;SDS011;65080;50.908;6.916;2023-07-29T04:06:57;2.17;;;1.90;;
76262;SDS011;65080;50.908;6.916;2023-07-29T04:09:25;2.10;;;1.60;;
76262;SDS011;65080;50.908;6.916;2023-07-29T04:11:53;4.97;;;1.90;;
76262;SDS011;65080;50.908;6.916;2023-07-29T04:14:21;2.40;;;1.70;;
76262;SDS011;65080;50.908;6.916;2023-07-29T04:16:51;3.20;;;1.87;;
76262;SDS011;65080;50.908;6.916;2023-07-29T04:19:19;2.03;;;1.83;;
76262;SDS011;65080;50.908;6.916;2023-07-29T04:21:48;5.07;;;2.03;;
76262;SDS011;65080;50.908;6.916;2023-07-29T04:24:17;2.97;;;2.23;;
76262;SDS011;65080;50.908;6.916;2023-07-29T04:26:46;4.70;;;2.20;;
76262;SDS011;65080;50.908;6.916;2023-07-29T04:29:14;4.30;;;1.97;;
76262;SDS011;65080;50.908;6.916;2023-07-29T04:31:43;6.37;;;2.00;;
76262;SDS011;65080;50.908;6.916;2023-07-29T04:34:12;2.43;;;2.03;;
76262;SDS011;65080;50.908;6.916;2023-07-29T04:36:41;2.97;;;2.63;;
76262;SDS011;65080;50.908;6.916;2023-07-29T04:39:09;4.20;;;2.30;;
76262;SDS011;65080;50.908;6.916;2023-07-29T04:41:37;3.70;;;2.27;;
76262;SDS011;65080;50.908;6.916;2023-07-29T04:44:05;4.60;;;2.50;;
76262;SDS011;65080;50.908;6.916;2023-07-29T04:46:35;5.17;;;2.30;;
76262;SDS011;65080;50.908;6.916;2023-07-29T04:49:04;3.00;;;2.23;;
76262;SDS011;65080;50.908;6.916;2023-07-29T04:51:34;3.77;;;2.43;;
76262;SDS011;65080;50.908;6.916;2023-07-29T04:54:03;4.53;;;3.10;;
76262;SDS011;65080;50.908;6.916;2023-07-29T04:56:32;3.93;;;2.83;;
76262;SDS011;65080;50.908;6.916;2023-07-29T04:59:01;3.20;;;2.90;;
76262;SDS011;65080;50.908;6.916;2023-07-29T05:01:29;3.37;;;3.00;;
76262;SDS011;65080;50.908;6.916;2023-07-29T05:03:57;2.60;;;2.10;;
76262;SDS011;65080;50.908;6.916;2023-07-29T05:06:25;4.37;;;3.17;;
76262;SDS011;65080;50.908;6.916;2023-07-29T05:08:56;5.77;;;2.43;;
76262;SDS011;65080;50.908;6.916;2023-07-29T05:11:25;4.73;;;2.47;;
76262;SDS011;65080;50.908;6.916;2023-07-29T05:13:53;5.23;;;2.43;;
76262;SDS011;65080;50.908;6.916;2023-07-29T05:16:21;3.60;;;2.27;;
76262;SDS011;65080;50.908;6.916;2023-07-29T05:18:50;3.10;;;2.50;;
76262;SDS011;65080;50.908;6.916;2023-07-29T05:21:18;2.70;;;2.30;;
76262;SDS011;65080;50.908;6.916;2023-07-29T05:23:46;6.20;;;2.83;;
76262;SDS011;65080;50.908;6.916;2023-07-29T05:26:16;3.40;;;2.77;;
76262;SDS011;65080;50.908;6.916;2023-07-29T05:28:44;2.43;;;2.23;;
76262;SDS011;65080;50.908;6.916;2023-07-29T05:31:12;3.43;;;2.60;;
76262;SDS011;65080;50.908;6.916;2023-07-29T05:33:40;3.00;;;2.70;;
76262;SDS011;65080;50.908;6.916;2023-07-29T05:36:09;3.00;;;2.60;;
76262;SDS011;65080;50.908;6.916;2023-07-29T05:38:37;6.63;;;2.40;;
76262;SDS011;65080;50.908;6.916;2023-07-29T05:41:05;3.67;;;2.67;;
76262;SDS011;65080;50.908;6.916;2023-07-29T05:43:34;4.03;;;2.70;;
76262;SDS011;65080;50.908;6.916;2023-07-29T05:46:03;3.10;;;2.80;;
76262;SDS011;65080;50.908;6.916;2023-07-29T05:48:31;2.50;;;2.07;;
76262;SDS011;65080;50.908;6.916;2023-07-29T05:51:00;3.63;;;2.33;;
76262;SDS011;65080;50.908;6.916;2023-07-29T05:53:28;2.93;;;2.30;;
76262;SDS011;65080;50.908;6.916;2023-07-29T05:55:56;3.77;;;2.57;;
76262;SDS011;65080;50.908;6.916;2023-07-29T05:58:24;2.80;;;2.10;;
76262;SDS011;65080;50.908;6.916;2023-07-29T06:00:54;3.87;;;2.23;;
76262;SDS011;65080;50.908;6.916;2023-07-29T06:03:22;4.43;;;2.47;;
76262;SDS011;65080;50.908;6.916;2023-07-29T06:05:51;5.63;;;2.30;;
76262;SDS011;65080;50.908;6.916;2023-07-29T06:08:20;2.50;;;2.30;;
76262;SDS011;65080;50.908;6.916;2023-07-29T06:10:49;2.13;;;1.93;;
76262;SDS011;65080;50.908;6.916;2023-07-29T06:13:17;4.50;;;2.30;;
76262;SDS011;65080;50.908;6.916;2023-07-29T06:15:45;2.33;;;2.13;;
76262;SDS011;65080;50.908;6.916;2023-07-29T06:18:15;2.63;;;2.10;;
76262;SDS011;65080;50.908;6.916;2023-07-29T06:20:43;4.63;;;2.57;;
76262;SDS011;65080;50.908;6.916;2023-07-29T06:23:11;2.67;;;2.30;;
76262;SDS011;65080;50.908;6.916;2023-07-29T06:25:40;4.40;;;2.67;;
76262;SDS011;65080;50.908;6.916;2023-07-29T06:28:08;3.63;;;2.80;;
76262;SDS011;65080;50.908;6.916;2023-07-29T06:30:37;3.40;;;2.27;;
76262;SDS011;65080;50.908;6.916;2023-07-29T06:33:05;3.87;;;3.00;;
76262;SDS011;65080;50.908;6.916;2023-07-29T06:35:34;5.80;;;2.50;;
76262;SDS011;65080;50.908;6.916;2023-07-29T06:38:03;5.37;;;2.60;;
76262;SDS011;65080;50.908;6.916;2023-07-29T06:40:31;2.83;;;2.50;;
76262;SDS011;65080;50.908;6.916;2023-07-29T06:42:59;3.67;;;2.67;;
76262;SDS011;65080;50.908;6.916;2023-07-29T06:45:27;5.50;;;3.63;;
76262;SDS011;65080;50.908;6.916;2023-07-29T06:47:56;3.13;;;2.47;;
76262;SDS011;65080;50.908;6.916;2023-07-29T06:50:24;4.03;;;2.53;;
76262;SDS011;65080;50.908;6.916;2023-07-29T06:52:53;3.10;;;2.30;;
76262;SDS011;65080;50.908;6.916;2023-07-29T06:55:22;4.10;;;2.57;;
76262;SDS011;65080;50.908;6.916;2023-07-29T06:57:50;4.80;;;2.50;;
76262;SDS011;65080;50.908;6.916;2023-07-29T07:00:18;5.47;;;2.30;;
76262;SDS011;65080;50.908;6.916;2023-07-29T07:02:46;5.63;;;2.80;;
76262;SDS011;65080;50.908;6.916;2023-07-29T07:05:15;4.70;;;2.17;;
76262;SDS011;65080;50.908;6.916;2023-07-29T07:07:43;2.83;;;2.10;;
76262;SDS011;65080;50.908;6.916;2023-07-29T07:10:13;2.93;;;2.37;;
76262;SDS011;65080;50.908;6.916;2023-07-29T07:12:42;5.63;;;2.33;;
76262;SDS011;65080;50.908;6.916;2023-07-29T07:15:10;5.00;;;3.00;;
76262;SDS011;65080;50.908;6.916;2023-07-29T07:17:38;4.30;;;2.10;;
76262;SDS011;65080;50.908;6.916;2023-07-29T07:20:07;10.53;;;2.60;;
76262;SDS011;65080;50.908;6.916;2023-07-29T07:22:36;2.67;;;1.87;;
76262;SDS011;65080;50.908;6.916;2023-07-29T07:25:04;2.40;;;2.13;;
76262;SDS011;65080;50.908;6.916;2023-07-29T07:27:36;3.37;;;2.60;;
76262;SDS011;65080;50.908;6.916;2023-07-29T07:30:05;4.20;;;2.30;;
76262;SDS011;65080;50.908;6.916;2023-07-29T07:32:34;3.00;;;2.40;;
76262;SDS011;65080;50.908;6.916;2023-07-29T07:35:03;3.07;;;1.97;;
76262;SDS011;65080;50.908;6.916;2023-07-29T07:37:31;3.70;;;2.50;;
76262;SDS011;65080;50.908;6.916;2023-07-29T07:39:59;7.37;;;5.33;;
76262;SDS011;65080;50.908;6.916;2023-07-29T07:42:28;5.47;;;2.90;;
76262;SDS011;65080;50.908;6.916;2023-07-29T07:44:57;3.10;;;2.00;;
76262;SDS011;65080;50.908;6.916;2023-07-29T07:47:26;3.27;;;2.13;;
76262;SDS011;65080;50.908;6.916;2023-07-29T07:49:54;3.03;;;2.57;;
76262;SDS011;65080;50.908;6.916;2023-07-29T07:52:22;8.00;;;3.43;;
76262;SDS011;65080;50.908;6.916;2023-07-29T07:54:51;8.63;;;3.60;;
76262;SDS011;65080;50.908;6.916;2023-07-29T07:57:20;7.83;;;3.30;;
76262;SDS011;65080;50.908;6.916;2023-07-29T07:59:48;8.87;;;3.00;;
76262;SDS011;65080;50.908;6.916;2023-07-29T08:02:20;4.00;;;1.90;;
76262;SDS011;65080;50.908;6.916;2023-07-29T08:04:48;3.83;;;1.93;;
76262;SDS011;65080;50.908;6.916;2023-07-29T08:07:17;2.90;;;1.70;;
76262;SDS011;65080;50.908;6.916;2023-07-29T08:09:45;6.03;;;1.90;;
76262;SDS011;65080;50.908;6.916;2023-07-29T08:12:14;1.90;;;1.50;;
76262;SDS011;65080;50.908;6.916;2023-07-29T08:14:45;2.90;;;1.73;;
76262;SDS011;65080;50.908;6.916;2023-07-29T08:17:13;3.13;;;1.57;;
76262;SDS011;65080;50.908;6.916;2023-07-29T08:19:43;5.37;;;2.27;;
76262;SDS011;65080;50.908;6.916;2023-07-29T08:22:12;2.37;;;1.50;;
76262;SDS011;65080;50.908;6.916;2023-07-29T08:24:40;2.60;;;1.30;;
76262;SDS011;65080;50.908;6.916;2023-07-29T08:27:08;4.73;;;1.40;;
76262;SDS011;65080;50.908;6.916;2023-07-29T08:29:36;1.37;;;1.27;;
76262;SDS011;65080;50.908;6.916;2023-07-29T08:32:05;2.87;;;1.40;;
76262;SDS011;65080;50.908;6.916;2023-07-29T08:34:34;2.30;;;1.20;;
76262;SDS011;65080;50.908;6.916;2023-07-29T08:37:04;1.73;;;1.30;;
76262;SDS011;65080;50.908;6.916;2023-07-29T08:39:33;2.47;;;1.43;;
76262;SDS011;65080;50.908;6.916;2023-07-29T08:42:02;1.27;;;1.07;;
76262;SDS011;65080;50.908;6.916;2023-07-29T08:44:34;6.60;;;1.40;;
76262;SDS011;65080;50.908;6.916;2023-07-29T08:47:07;4.00;;;1.77;;
76262;SDS011;65080;50.908;6.916;2023-07-29T08:49:36;2.17;;;1.40;;
76262;SDS011;65080;50.908;6.916;2023-07-29T08:52:06;3.77;;;1.20;;
76262;SDS011;65080;50.908;6.916;2023-07-29T08:54:34;4.37;;;1.37;;
76262;SDS011;65080;50.908;6.916;2023-07-29T08:57:03;1.30;;;0.93;;
76262;SDS011;65080;50.908;6.916;2023-07-29T08:59:32;3.40;;;1.00;;
76262;SDS011;65080;50.908;6.916;2023-07-29T09:02:01;3.60;;;1.10;;
76262;SDS011;65080;50.908;6.916;2023-07-29T09:04:29;1.87;;;1.20;;
76262;SDS011;65080;50.908;6.916;2023-07-29T09:06:57;3.43;;;1.20;;
76262;SDS011;65080;50.908;6.916;2023-07-29T09:09:28;1.83;;;1.00;;
76262;SDS011;65080;50.908;6.916;2023-07-29T09:11:56;3.03;;;1.13;;
76262;SDS011;65080;50.908;6.916;2023-07-29T09:14:25;3.20;;;1.53;;
76262;SDS011;65080;50.908;6.916;2023-07-29T09:16:55;1.40;;;0.97;;
76262;SDS011;65080;50.908;6.916;2023-07-29T09:19:24;2.17;;;0.90;;
76262;SDS011;65080;50.908;6.916;2023-07-29T09:21:53;2.17;;;1.00;;
76262;SDS011;65080;50.908;6.916;2023-07-29T09:24:21;3.33;;;1.10;;
76262;SDS011;65080;50.908;6.916;2023-07-29T09:26:51;3.77;;;1.30;;
76262;SDS011;65080;50.908;6.916;2023-07-29T09:29:21;1.80;;;1.30;;
76262;SDS011;65080;50.908;6.916;2023-07-29T09:31:50;2.60;;;1.60;;
76262;SDS011;65080;50.908;6.916;2023-07-29T09:34:19;2.00;;;1.70;;
76262;SDS011;65080;50.908;6.916;2023-07-29T09:36:47;3.80;;;1.37;;
76262;SDS011;65080;50.908;6.916;2023-07-29T09:39:18;4.60;;;1.50;;
76262;SDS011;65080;50.908;6.916;2023-07-29T09:41:52;3.77;;;1.23;;
76262;SDS011;65080;50.908;6.916;2023-07-29T09:44:20;2.20;;;1.30;;
76262;SDS011;65080;50.908;6.916;2023-07-29T09:46:49;2.27;;;1.20;;
76262;SDS011;65080;50.908;6.916;2023-07-29T09:49:17;1.87;;;1.20;;
76262;SDS011;65080;50.908;6.916;2023-07-29T09:51:45;2.40;;;1.20;;
76262;SDS011;65080;50.908;6.916;2023-07-29T09:54:13;1.50;;;1.10;;
76262;SDS011;65080;50.908;6.916;2023-07-29T09:56:42;2.27;;;1.00;;
76262;SDS011;65080;50.908;6.916;2023-07-29T09:59:12;2.20;;;1.33;;
76262;SDS011;65080;50.908;6.916;2023-07-29T10:01:40;2.87;;;1.30;;
76262;SDS011;65080;50.908;6.916;2023-07-29T10:04:10;2.33;;;1.47;;
76262;SDS011;65080;50.908;6.916;2023-07-29T10:06:40;1.40;;;1.10;;
76262;SDS011;65080;50.908;6.916;2023-07-29T10:09:10;5.73;;;1.70;;
76262;SDS011;65080;50.908;6.916;2023-07-29T10:11:39;2.20;;;1.50;;
76262;SDS011;65080;50.908;6.916;2023-07-29T10:14:09;1.97;;;1.30;;
76262;SDS011;65080;50.908;6.916;2023-07-29T10:16:39;1.53;;;1.30;;
76262;SDS011;65080;50.908;6.916;2023-07-29T10:19:07;2.93;;;1.37;;
76262;SDS011;65080;50.908;6.916;2023-07-29T10:21:39;1.30;;;1.10;;
76262;SDS011;65080;50.908;6.916;2023-07-29T10:24:11;2.53;;;1.70;;
76262;SDS011;65080;50.908;6.916;2023-07-29T10:26:46;3.40;;;1.90;;
76262;SDS011;65080;50.908;6.916;2023-07-29T10:29:18;3.40;;;1.37;;
76262;SDS011;65080;50.908;6.916;2023-07-29T10:31:49;2.00;;;1.40;;
76262;SDS011;65080;50.908;6.916;2023-07-29T10:34:20;2.00;;;1.53;;
76262;SDS011;65080;50.908;6.916;2023-07-29T10:36:50;5.70;;;1.70;;
76262;SDS011;65080;50.908;6.916;2023-07-29T10:39:19;1.60;;;1.40;;
76262;SDS011;65080;50.908;6.916;2023-07-29T10:41:54;3.83;;;1.40;;
76262;SDS011;65080;50.908;6.916;2023-07-29T10:47:25;2.60;;;1.33;;
76262;SDS011;65080;50.908;6.916;2023-07-29T10:49:55;3.03;;;1.50;;
76262;SDS011;65080;50.908;6.916;2023-07-29T10:52:28;2.83;;;1.60;;
76262;SDS011;65080;50.908;6.916;2023-07-29T10:55:23;2.87;;;1.10;;
76262;SDS011;65080;50.908;6.916;2023-07-29T10:58:05;4.80;;;1.50;;
76262;SDS011;65080;50.908;6.916;2023-07-29T11:00:35;3.10;;;1.90;;
76262;SDS011;65080;50.908;6.916;2023-07-29T11:03:06;2.90;;;1.40;;
76262;SDS011;65080;50.908;6.916;2023-07-29T11:05:42;3.90;;;1.70;;
76262;SDS011;65080;50.908;6.916;2023-07-29T11:08:16;3.70;;;2.00;;
76262;SDS011;65080;50.908;6.916;2023-07-29T11:10:57;2.37;;;1.77;;
76262;SDS011;65080;50.908;6.916;2023-07-29T11:13:28;3.40;;;2.27;;
76262;SDS011;65080;50.908;6.916;2023-07-29T11:15:58;2.90;;;2.00;;
76262;SDS011;65080;50.908;6.916;2023-07-29T11:18:29;5.43;;;2.43;;
76262;SDS011;65080;50.908;6.916;2023-07-29T11:20:59;2.77;;;2.30;;
76262;SDS011;65080;50.908;6.916;2023-07-29T11:23:28;2.80;;;2.00;;
76262;SDS011;65080;50.908;6.916;2023-07-29T11:25:58;3.57;;;1.63;;
76262;SDS011;65080;50.908;6.916;2023-07-29T11:28:27;4.20;;;2.20;;
76262;SDS011;65080;50.908;6.916;2023-07-29T11:30:56;5.00;;;1.80;;
76262;SDS011;65080;50.908;6.916;2023-07-29T11:33:26;4.50;;;2.00;;
76262;SDS011;65080;50.908;6.916;2023-07-29T11:35:56;3.40;;;2.10;;
76262;SDS011;65080;50.908;6.916;2023-07-29T11:38:25;3.20;;;2.00;;
76262;SDS011;65080;50.908;6.916;2023-07-29T11:40:58;3.13;;;1.70;;
76262;SDS011;65080;50.908;6.916;2023-07-29T11:43:27;2.13;;;1.43;;
76262;SDS011;65080;50.908;6.916;2023-07-29T11:45:55;1.40;;;1.10;;
76262;SDS011;65080;50.908;6.916;2023-07-29T11:48:27;2.50;;;1.40;;
76262;SDS011;65080;50.908;6.916;2023-07-29T11:50:57;2.07;;;1.30;;
76262;SDS011;65080;50.908;6.916;2023-07-29T11:53:26;2.00;;;1.60;;
76262;SDS011;65080;50.908;6.916;2023-07-29T11:55:57;1.50;;;1.20;;
76262;SDS011;65080;50.908;6.916;2023-07-29T11:58:25;1.40;;;0.90;;
76262;SDS011;65080;50.908;6.916;2023-07-29T12:00:54;2.20;;;1.50;;
76262;SDS011;65080;50.908;6.916;2023-07-29T12:03:23;1.43;;;1.00;;
76262;SDS011;65080;50.908;6.916;2023-07-29T12:05:52;1.80;;;1.20;;
76262;SDS011;65080;50.908;6.916;2023-07-29T12:08:22;6.07;;;1.43;;
76262;SDS011;65080;50.908;6.916;2023-07-29T12:10:50;1.67;;;1.20;;
76262;SDS011;65080;50.908;6.916;2023-07-29T12:13:23;1.40;;;1.00;;
76262;SDS011;65080;50.908;6.916;2023-07-29T12:15:51;2.40;;;1.20;;
76262;SDS011;65080;50.908;6.916;2023-07-29T12:18:24;1.90;;;1.40;;
76262;SDS011;65080;50.908;6.916;2023-07-29T12:20:57;1.70;;;0.90;;
76262;SDS011;65080;50.908;6.916;2023-07-29T12:23:28;1.53;;;1.20;;
76262;SDS011;65080;50.908;6.916;2023-07-29T12:25:57;1.90;;;0.97;;
76262;SDS011;65080;50.908;6.916;2023-07-29T12:28:26;1.60;;;1.40;;
76262;SDS011;65080;50.908;6.916;2023-07-29T12:30:55;1.40;;;0.90;;
76262;SDS011;65080;50.908;6.916;2023-07-29T12:33:30;1.17;;;1.00;;
76262;SDS011;65080;50.908;6.916;2023-07-29T12:35:59;1.30;;;1.20;;
76262;SDS011;65080;50.908;6.916;2023-07-29T12:38:29;2.67;;;1.17;;
76262;SDS011;65080;50.908;6.916;2023-07-29T12:40:57;1.60;;;1.37;;
76262;SDS011;65080;50.908;6.916;2023-07-29T12:43:26;2.33;;;1.20;;
76262;SDS011;65080;50.908;6.916;2023-07-29T12:45:54;1.40;;;1.10;;
76262;SDS011;65080;50.908;6.916;2023-07-29T12:48:24;1.73;;;1.27;;
76262;SDS011;65080;50.908;6.916;2023-07-29T12:50:52;1.50;;;1.20;;
76262;SDS011;65080;50.908;6.916;2023-07-29T12:53:20;1.60;;;1.20;;
76262;SDS011;65080;50.908;6.916;2023-07-29T12:55:50;4.67;;;1.23;;
76262;SDS011;65080;50.908;6.916;2023-07-29T12:58:18;2.03;;;1.30;;
76262;SDS011;65080;50.908;6.916;2023-07-29T13:00:46;2.00;;;1.30;;
76262;SDS011;65080;50.908;6.916;2023-07-29T13:03:14;1.60;;;1.17;;
76262;SDS011;65080;50.908;6.916;2023-07-29T13:05:43;1.50;;;1.10;;
76262;SDS011;65080;50.908;6.916;2023-07-29T13:08:11;1.20;;;0.90;;
76262;SDS011;65080;50.908;6.916;2023-07-29T13:10:39;1.63;;;1.10;;
76262;SDS011;65080;50.908;6.916;2023-07-29T13:13:10;1.47;;;1.30;;
76262;SDS011;65080;50.908;6.916;2023-07-29T13:15:39;5.27;;;1.23;;
76262;SDS011;65080;50.908;6.916;2023-07-29T13:18:08;2.60;;;1.20;;
76262;SDS011;65080;50.908;6.916;2023-07-29T13:20:36;2.03;;;1.23;;
76262;SDS011;65080;50.908;6.916;2023-07-29T13:23:04;1.63;;;1.30;;
76262;SDS011;65080;50.908;6.916;2023-07-29T13:25:32;1.60;;;1.40;;
76262;SDS011;65080;50.908;6.916;2023-07-29T13:28:00;1.20;;;1.10;;
76262;SDS011;65080;50.908;6.916;2023-07-29T13:30:30;2.07;;;1.67;;
76262;SDS011;65080;50.908;6.916;2023-07-29T13:32:58;4.07;;;2.00;;
76262;SDS011;65080;50.908;6.916;2023-07-29T13:35:27;2.20;;;1.70;;
76262;SDS011;65080;50.908;6.916;2023-07-29T13:37:56;5.53;;;1.73;;
76262;SDS011;65080;50.908;6.916;2023-07-29T13:40:24;2.40;;;1.70;;
76262;SDS011;65080;50.908;6.916;2023-07-29T13:42:53;5.30;;;1.60;;
76262;SDS011;65080;50.908;6.916;2023-07-29T13:45:21;2.67;;;1.80;;
76262;SDS011;65080;50.908;6.916;2023-07-29T13:47:51;2.73;;;2.00;;
76262;SDS011;65080;50.908;6.916;2023-07-29T13:50:19;6.50;;;1.77;;
76262;SDS011;65080;50.908;6.916;2023-07-29T13:52:47;3.50;;;1.87;;
76262;SDS011;65080;50.908;6.916;2023-07-29T13:55:16;3.77;;;2.03;;
76262;SDS011;65080;50.908;6.916;2023-07-29T13:57:44;3.53;;;1.90;;
76262;SDS011;65080;50.908;6.916;2023-07-29T14:00:13;3.30;;;2.50;;
76262;SDS011;65080;50.908;6.916;2023-07-29T14:02:41;2.03;;;1.70;;
76262;SDS011;65080;50.908;6.916;2023-07-29T14:05:11;3.10;;;2.03;;
76262;SDS011;65080;50.908;6.916;2023-07-29T14:07:41;2.70;;;1.50;;
76262;SDS011;65080;50.908;6.916;2023-07-29T14:10:09;3.93;;;2.27;;
76262;SDS011;65080;50.908;6.916;2023-07-29T14:12:37;3.00;;;1.60;;
76262;SDS011;65080;50.908;6.916;2023-07-29T14:15:06;2.87;;;1.53;;
76262;SDS011;65080;50.908;6.916;2023-07-29T14:17:35;3.10;;;1.97;;
76262;SDS011;65080;50.908;6.916;2023-07-29T14:20:04;3.40;;;1.80;;
76262;SDS011;65080;50.908;6.916;2023-07-29T14:22:35;3.40;;;1.80;;
76262;SDS011;65080;50.908;6.916;2023-07-29T14:25:03;3.63;;;2.07;;
76262;SDS011;65080;50.908;6.916;2023-07-29T14:27:32;2.60;;;1.93;;
76262;SDS011;65080;50.908;6.916;2023-07-29T14:30:00;3.80;;;1.90;;
76262;SDS011;65080;50.908;6.916;2023-07-29T14:32:29;3.30;;;2.10;;
76262;SDS011;65080;50.908;6.916;2023-07-29T14:34:57;3.20;;;1.70;;
76262;SDS011;65080;50.908;6.916;2023-07-29T14:37:30;2.03;;;1.67;;
76262;SDS011;65080;50.908;6.916;2023-07-29T14:40:00;6.07;;;2.10;;
76262;SDS011;65080;50.908;6.916;2023-07-29T14:42:29;2.90;;;2.00;;
76262;SDS011;65080;50.908;6.916;2023-07-29T14:45:03;2.27;;;1.87;;
76262;SDS011;65080;50.908;6.916;2023-07-29T14:47:36;3.30;;;1.70;;
76262;SDS011;65080;50.908;6.916;2023-07-29T14:50:15;4.33;;;1.93;;
76262;SDS011;65080;50.908;6.916;2023-07-29T14:52:44;2.40;;;1.67;;
76262;SDS011;65080;50.908;6.916;2023-07-29T14:55:15;2.10;;;1.60;;
76262;SDS011;65080;50.908;6.916;2023-07-29T14:57:45;1.97;;;1.73;;
76262;SDS011;65080;50.908;6.916;2023-07-29T15:00:14;2.30;;;1.80;;
76262;SDS011;65080;50.908;6.916;2023-07-29T15:02:44;3.17;;;1.70;;